createdAt,value
2023-03-01T00:01:02.556Z,-2.52
2023-03-01T00:03:36.445Z,-2.60
2023-03-01T00:06:10.925Z,-2.62
2023-03-01T00:08:44.089Z,-2.70
2023-03-01T00:11:21.386Z,-2.70
2023-03-01T00:13:57.245Z,-2.70
2023-03-01T00:16:33.409Z,-2.70
2023-03-01T00:19:07.256Z,-2.70
2023-03-01T00:21:41.156Z,-2.80
2023-03-01T00:24:14.298Z,-2.80
2023-03-01T00:26:47.775Z,-2.90
2023-03-01T00:29:20.837Z,-2.90
2023-03-01T00:31:53.988Z,-3.00
2023-03-01T00:34:27.112Z,-3.04
2023-03-01T00:37:06.414Z,-3.10
2023-03-01T00:39:40.079Z,-3.10
2023-03-01T00:42:13.173Z,-3.20
2023-03-01T00:44:46.244Z,-3.20
2023-03-01T00:47:19.220Z,-3.20
2023-03-01T00:49:53.349Z,-3.30
2023-03-01T00:52:26.383Z,-3.30
2023-03-01T00:55:00.129Z,-3.32
2023-03-01T00:57:33.560Z,-3.40
2023-03-01T01:00:08.028Z,-3.40
2023-03-01T01:02:41.668Z,-3.40
2023-03-01T01:05:15.283Z,-3.40
2023-03-01T01:07:48.457Z,-3.48
2023-03-01T01:10:22.179Z,-3.50
2023-03-01T01:12:55.313Z,-3.50
2023-03-01T01:15:29.429Z,-3.52
2023-03-01T01:18:02.504Z,-3.56
2023-03-01T01:20:37.754Z,-3.60
2023-03-01T01:23:12.275Z,-3.60
2023-03-01T01:25:45.370Z,-3.60
2023-03-01T01:28:18.394Z,-3.60
2023-03-01T01:30:52.681Z,-3.60
2023-03-01T01:33:26.069Z,-3.60
2023-03-01T01:35:59.302Z,-3.60
2023-03-01T01:38:32.357Z,-3.60
2023-03-01T01:41:06.635Z,-3.60
2023-03-01T01:43:43.198Z,-3.60
2023-03-01T01:46:28.993Z,-3.68
2023-03-01T01:49:07.234Z,-3.70
2023-03-01T01:51:46.804Z,-3.70
2023-03-01T01:54:25.160Z,-3.70
2023-03-01T01:57:02.000Z,-3.70
2023-03-01T01:59:36.096Z,-3.70
2023-03-01T02:02:09.401Z,-3.80
2023-03-01T02:04:43.250Z,-3.80
2023-03-01T02:07:20.357Z,-3.80
2023-03-01T02:09:55.246Z,-3.80
2023-03-01T02:12:30.043Z,-3.80
2023-03-01T02:15:03.470Z,-3.80
2023-03-01T02:17:36.985Z,-3.80
2023-03-01T02:20:21.691Z,-3.84
2023-03-01T02:22:56.125Z,-3.90
2023-03-01T02:25:40.067Z,-3.90
2023-03-01T02:28:24.980Z,-3.90
2023-03-01T02:31:15.898Z,-3.90
2023-03-01T02:33:49.910Z,-3.90
2023-03-01T02:36:25.405Z,-3.90
2023-03-01T02:39:02.042Z,-3.90
2023-03-01T02:41:41.688Z,-3.90
2023-03-01T02:44:14.855Z,-3.94
2023-03-01T02:46:55.612Z,-4.00
2023-03-01T02:49:32.023Z,-4.00
2023-03-01T02:52:42.666Z,-4.00
2023-03-01T02:55:19.069Z,-4.00
2023-03-01T02:57:52.936Z,-4.02
2023-03-01T03:00:30.830Z,-4.10
2023-03-01T03:03:04.316Z,-4.10
2023-03-01T03:05:37.650Z,-4.10
2023-03-01T03:08:12.209Z,-4.10
2023-03-01T03:10:46.843Z,-4.10
2023-03-01T03:13:20.766Z,-4.10
2023-03-01T03:15:53.936Z,-4.10
2023-03-01T03:18:28.162Z,-4.10
2023-03-01T03:21:01.143Z,-4.00
2023-03-01T03:23:34.138Z,-3.98
2023-03-01T03:26:07.727Z,-3.90
2023-03-01T03:28:41.050Z,-3.96
2023-03-01T03:31:14.132Z,-4.00
2023-03-01T03:33:47.240Z,-4.00
2023-03-01T03:36:24.704Z,-4.06
2023-03-01T03:38:57.674Z,-4.10
2023-03-01T03:41:30.683Z,-4.12
2023-03-01T03:44:03.725Z,-4.20
2023-03-01T03:46:36.744Z,-4.20
2023-03-01T03:49:09.755Z,-4.20
2023-03-01T03:51:42.837Z,-4.30
2023-03-01T03:54:15.825Z,-4.28
2023-03-01T03:56:48.787Z,-4.30
2023-03-01T03:59:21.832Z,-4.30
2023-03-01T04:01:54.971Z,-4.30
2023-03-01T04:04:28.077Z,-4.30
2023-03-01T04:07:01.017Z,-4.30
2023-03-01T04:09:33.986Z,-4.30
2023-03-01T04:12:07.286Z,-4.30
2023-03-01T04:14:40.794Z,-4.30
2023-03-01T04:17:13.859Z,-4.30
2023-03-01T04:19:50.052Z,-4.30
2023-03-01T04:22:23.400Z,-4.30
2023-03-01T04:24:58.433Z,-4.30
2023-03-01T04:27:31.389Z,-4.30
2023-03-01T04:30:05.411Z,-4.30
2023-03-01T04:32:38.491Z,-4.32
2023-03-01T04:35:12.419Z,-4.30
2023-03-01T04:37:46.219Z,-4.38
2023-03-01T04:40:20.016Z,-4.40
2023-03-01T04:42:53.310Z,-4.40
2023-03-01T04:45:26.552Z,-4.40
2023-03-01T04:47:59.929Z,-4.40
2023-03-01T04:50:33.514Z,-4.40
2023-03-01T04:53:06.774Z,-4.40
2023-03-01T04:55:39.769Z,-4.40
2023-03-01T04:58:12.965Z,-4.40
2023-03-01T05:00:46.261Z,-4.30
2023-03-01T05:03:19.334Z,-4.30
2023-03-01T05:05:55.021Z,-4.30
2023-03-01T05:08:28.065Z,-4.30
2023-03-01T05:11:01.099Z,-4.30
2023-03-01T05:13:34.867Z,-4.30
2023-03-01T05:16:12.715Z,-4.30
2023-03-01T05:18:47.235Z,-4.30
2023-03-01T05:21:20.810Z,-4.30
2023-03-01T05:23:54.015Z,-4.30
2023-03-01T05:26:29.820Z,-4.30
2023-03-01T05:29:02.833Z,-4.30
2023-03-01T05:31:35.838Z,-4.36
2023-03-01T05:34:08.924Z,-4.40
2023-03-01T05:36:41.965Z,-4.40
2023-03-01T05:39:14.971Z,-4.38
2023-03-01T05:41:47.980Z,-4.36
2023-03-01T05:44:21.382Z,-4.30
2023-03-01T05:46:54.616Z,-4.30
2023-03-01T05:49:27.831Z,-4.28
2023-03-01T05:52:01.060Z,-4.22
2023-03-01T05:54:34.380Z,-4.20
2023-03-01T05:57:07.373Z,-4.10
2023-03-01T05:59:40.611Z,-4.10
2023-03-01T06:02:13.645Z,-4.00
2023-03-01T06:04:46.790Z,-4.00
2023-03-01T06:07:19.865Z,-3.90
2023-03-01T06:09:52.853Z,-3.90
2023-03-01T06:12:25.865Z,-3.80
2023-03-01T06:14:58.941Z,-3.70
2023-03-01T06:17:34.456Z,-3.60
2023-03-01T06:20:10.687Z,-3.50
2023-03-01T06:22:44.497Z,-3.40
2023-03-01T06:25:19.550Z,-3.30
2023-03-01T06:27:53.338Z,-3.20
2023-03-01T06:30:28.693Z,-3.10
2023-03-01T06:33:02.910Z,-3.00
2023-03-01T06:35:36.237Z,-2.90
2023-03-01T06:38:09.549Z,-2.74
2023-03-01T06:40:42.941Z,-2.60
2023-03-01T06:43:16.007Z,-2.50
2023-03-01T06:45:49.124Z,-2.40
2023-03-01T06:48:22.127Z,-2.28
2023-03-01T06:50:55.289Z,-2.12
2023-03-01T06:53:28.475Z,-2.00
2023-03-01T06:56:02.824Z,-1.90
2023-03-01T06:58:35.983Z,-1.80
2023-03-01T07:01:13.165Z,-1.60
2023-03-01T07:03:46.544Z,-1.50
2023-03-01T07:06:19.880Z,-1.40
2023-03-01T07:08:52.955Z,-1.26
2023-03-01T07:11:26.100Z,-1.10
2023-03-01T07:13:59.597Z,-1.00
2023-03-01T07:16:33.116Z,-0.90
2023-03-01T07:19:06.902Z,-0.78
2023-03-01T07:21:40.855Z,-0.60
2023-03-01T07:24:14.388Z,-0.50
2023-03-01T07:26:50.376Z,-0.36
2023-03-01T07:29:23.711Z,-0.22
2023-03-01T07:31:56.887Z,-0.14
2023-03-01T07:34:30.049Z,-0.02
2023-03-01T07:37:03.121Z,0.10
2023-03-01T07:39:36.157Z,0.24
2023-03-01T07:42:09.446Z,0.38
2023-03-01T07:44:42.488Z,0.50
2023-03-01T07:47:15.644Z,0.60
2023-03-01T07:49:48.650Z,0.82
2023-03-01T07:52:21.616Z,1.00
2023-03-01T07:54:54.603Z,1.12
2023-03-01T07:57:27.950Z,1.30
2023-03-01T08:00:00.987Z,1.52
2023-03-01T08:02:34.034Z,1.74
2023-03-01T08:05:08.088Z,1.94
2023-03-01T08:07:41.205Z,2.20
2023-03-01T08:10:16.559Z,2.60
2023-03-01T08:12:49.572Z,3.00
2023-03-01T08:15:22.664Z,3.44
2023-03-01T08:17:55.886Z,3.90
2023-03-01T08:20:28.961Z,4.38
2023-03-01T08:23:03.166Z,4.90
2023-03-01T08:25:36.237Z,5.36
2023-03-01T08:28:09.965Z,5.80
2023-03-01T08:30:43.045Z,6.16
2023-03-01T08:33:16.134Z,6.62
2023-03-01T08:35:49.186Z,6.86
2023-03-01T08:38:22.392Z,7.10
2023-03-01T08:40:55.396Z,7.46
2023-03-01T08:43:28.434Z,7.60
2023-03-01T08:46:01.526Z,7.72
2023-03-01T08:48:34.782Z,7.98
2023-03-01T08:51:16.777Z,8.34
2023-03-01T08:53:50.563Z,8.60
2023-03-01T08:56:23.957Z,8.88
2023-03-01T08:58:57.112Z,8.90
2023-03-01T09:01:30.281Z,9.08
2023-03-01T09:04:03.341Z,9.44
2023-03-01T09:06:38.289Z,9.84
2023-03-01T09:09:18.076Z,10.30
2023-03-01T09:11:52.037Z,10.70
2023-03-01T09:14:25.066Z,11.06
2023-03-01T09:16:58.492Z,11.54
2023-03-01T09:19:31.558Z,12.02
2023-03-01T09:22:05.388Z,12.60
2023-03-01T09:24:38.468Z,13.16
2023-03-01T09:27:12.481Z,13.40
2023-03-01T09:29:45.597Z,13.64
2023-03-01T09:32:18.937Z,13.96
2023-03-01T09:35:05.869Z,14.26
2023-03-01T09:37:40.891Z,14.70
2023-03-01T09:40:18.546Z,15.22
2023-03-01T09:43:03.280Z,15.56
2023-03-01T09:45:43.677Z,15.60
2023-03-01T09:48:23.212Z,15.60
2023-03-01T09:50:57.109Z,16.12
2023-03-01T09:53:36.405Z,16.40
2023-03-01T09:56:23.571Z,16.72
2023-03-01T09:59:06.586Z,17.32
2023-03-01T10:01:46.337Z,17.40
2023-03-01T10:04:41.631Z,17.78
2023-03-01T10:07:32.058Z,18.50
2023-03-01T10:10:07.028Z,19.20
2023-03-01T10:12:43.856Z,19.20
2023-03-01T10:15:20.391Z,19.50
2023-03-01T10:17:58.909Z,20.00
2023-03-01T10:20:47.029Z,19.90
2023-03-01T10:23:20.372Z,19.60
2023-03-01T10:26:08.471Z,19.66
2023-03-01T10:28:56.769Z,20.02
2023-03-01T10:31:44.204Z,20.50
2023-03-01T10:34:22.206Z,20.80
2023-03-01T10:36:59.094Z,21.30
2023-03-01T10:39:34.422Z,21.04
2023-03-01T10:42:21.368Z,20.90
2023-03-01T10:44:54.716Z,21.32
2023-03-01T10:47:30.179Z,21.84
2023-03-01T10:50:07.708Z,22.10
2023-03-01T10:52:44.403Z,22.26
2023-03-01T10:55:33.918Z,22.20
2023-03-01T10:58:24.416Z,21.18
2023-03-01T11:01:01.471Z,20.58
2023-03-01T11:03:36.937Z,20.72
2023-03-01T11:06:24.836Z,21.38
2023-03-01T11:08:57.946Z,22.40
2023-03-01T11:11:38.934Z,23.10
2023-03-01T11:14:26.919Z,23.50
2023-03-01T11:17:14.792Z,24.06
2023-03-01T11:20:05.002Z,23.92
2023-03-01T11:22:38.531Z,24.36
2023-03-01T11:25:17.521Z,24.92
2023-03-01T11:27:51.161Z,25.10
2023-03-01T11:30:30.022Z,25.50
2023-03-01T11:33:19.414Z,25.60
2023-03-01T11:36:00.340Z,25.54
2023-03-01T11:38:37.173Z,25.60
2023-03-01T11:41:19.205Z,25.80
2023-03-01T11:43:59.920Z,26.00
2023-03-01T11:47:01.158Z,25.12
2023-03-01T11:50:12.158Z,24.20
2023-03-01T11:52:56.781Z,24.40
2023-03-01T11:55:53.640Z,25.10
2023-03-01T11:58:56.480Z,25.62
2023-03-01T12:01:51.269Z,25.40
2023-03-01T12:05:02.451Z,25.44
2023-03-01T12:07:44.308Z,25.10
2023-03-01T12:10:29.285Z,25.10
2023-03-01T12:13:39.865Z,25.82
2023-03-01T12:16:40.251Z,26.26
2023-03-01T12:19:30.563Z,26.76
2023-03-01T12:22:20.301Z,27.10
2023-03-01T12:25:27.943Z,27.00
2023-03-01T12:28:38.765Z,27.36
2023-03-01T12:31:49.771Z,27.66
2023-03-01T12:34:44.686Z,28.22
2023-03-01T12:37:36.841Z,28.26
2023-03-01T12:40:41.256Z,28.76
2023-03-01T12:43:25.121Z,29.16
2023-03-01T12:46:11.657Z,29.50
2023-03-01T12:49:01.884Z,29.30
2023-03-01T12:51:38.268Z,28.82
2023-03-01T12:54:23.392Z,28.46
2023-03-01T12:56:57.401Z,29.00
2023-03-01T12:59:39.452Z,29.12
2023-03-01T13:02:22.633Z,28.40
2023-03-01T13:05:19.342Z,28.10
2023-03-01T13:08:03.493Z,27.76
2023-03-01T13:10:42.275Z,26.76
2023-03-01T13:13:24.032Z,26.10
2023-03-01T13:15:58.846Z,26.50
2023-03-01T13:18:36.657Z,26.90
2023-03-01T13:21:10.713Z,27.40
2023-03-01T13:23:50.091Z,27.50
2023-03-01T13:26:21.895Z,27.14
2023-03-01T13:29:02.315Z,26.40
2023-03-01T13:32:05.782Z,24.92
2023-03-01T13:34:59.784Z,23.88
2023-03-01T13:37:39.718Z,23.00
2023-03-01T13:41:02.202Z,21.94
2023-03-01T13:43:39.911Z,19.46
2023-03-01T13:46:22.800Z,17.50
2023-03-01T13:48:59.258Z,15.60
2023-03-01T13:51:33.836Z,14.08
2023-03-01T13:54:07.407Z,12.96
2023-03-01T13:56:42.313Z,12.02
2023-03-01T13:59:27.401Z,11.24
2023-03-01T14:02:03.050Z,10.46
2023-03-01T14:04:38.753Z,10.00
2023-03-01T14:07:25.432Z,9.60
2023-03-01T14:10:02.190Z,9.30
2023-03-01T14:12:53.648Z,9.00
2023-03-01T14:15:34.334Z,8.70
2023-03-01T14:18:14.747Z,8.50
2023-03-01T14:20:53.909Z,8.40
2023-03-01T14:23:29.005Z,8.30
2023-03-01T14:26:02.881Z,8.20
2023-03-01T14:28:40.087Z,8.02
2023-03-01T14:31:52.637Z,7.80
2023-03-01T14:34:28.314Z,7.60
2023-03-01T14:37:14.093Z,7.50
2023-03-01T14:39:47.320Z,7.40
2023-03-01T14:42:21.774Z,7.30
2023-03-01T14:44:59.168Z,7.28
2023-03-01T14:47:36.110Z,7.20
2023-03-01T14:50:19.212Z,7.20
2023-03-01T14:52:57.862Z,7.20
2023-03-01T14:55:36.912Z,7.16
2023-03-01T14:58:16.260Z,7.10
2023-03-01T15:00:56.004Z,7.00
2023-03-01T15:03:36.461Z,7.00
2023-03-01T15:06:11.826Z,7.00
2023-03-01T15:08:51.629Z,7.00
2023-03-01T15:11:30.001Z,6.90
2023-03-01T15:14:03.664Z,6.90
2023-03-01T15:16:42.623Z,6.80
2023-03-01T15:19:22.735Z,6.80
2023-03-01T15:21:55.923Z,6.80
2023-03-01T15:24:30.633Z,6.70
2023-03-01T15:27:08.055Z,6.70
2023-03-01T15:29:41.967Z,6.70
2023-03-01T15:32:32.428Z,6.70
2023-03-01T15:35:42.413Z,6.60
2023-03-01T15:38:33.012Z,6.50
2023-03-01T15:41:06.182Z,6.46
2023-03-01T15:43:48.186Z,6.40
2023-03-01T15:46:31.119Z,6.32
2023-03-01T15:49:07.438Z,6.30
2023-03-01T15:51:41.512Z,6.20
2023-03-01T15:54:23.070Z,6.20
2023-03-01T15:56:56.315Z,6.10
2023-03-01T15:59:29.454Z,6.10
2023-03-01T16:02:02.529Z,6.00
2023-03-01T16:04:35.674Z,5.90
2023-03-01T16:07:08.801Z,5.84
2023-03-01T16:09:42.521Z,5.78
2023-03-01T16:12:18.976Z,5.70
2023-03-01T16:14:55.123Z,5.60
2023-03-01T16:17:28.208Z,5.50
2023-03-01T16:20:01.478Z,5.46
2023-03-01T16:22:35.269Z,5.40
2023-03-01T16:25:10.847Z,5.30
2023-03-01T16:27:46.015Z,5.20
2023-03-01T16:30:24.248Z,5.10
2023-03-01T16:32:57.832Z,5.00
2023-03-01T16:35:31.319Z,4.90
2023-03-01T16:38:04.757Z,4.80
2023-03-01T16:40:38.010Z,4.70
2023-03-01T16:43:12.214Z,4.60
2023-03-01T16:45:46.046Z,4.52
2023-03-01T16:48:19.150Z,4.46
2023-03-01T16:51:03.888Z,4.40
2023-03-01T16:53:39.131Z,4.30
2023-03-01T16:56:14.913Z,4.20
2023-03-01T16:58:48.367Z,4.18
2023-03-01T17:01:25.637Z,4.10
2023-03-01T17:03:58.742Z,4.00
2023-03-01T17:06:33.459Z,4.00
2023-03-01T17:09:06.706Z,3.90
2023-03-01T17:11:39.800Z,3.80
2023-03-01T17:14:12.985Z,3.80
2023-03-01T17:16:46.258Z,3.70
2023-03-01T17:19:19.816Z,3.60
2023-03-01T17:21:53.232Z,3.58
2023-03-01T17:24:26.488Z,3.50
2023-03-01T17:27:01.115Z,3.40
2023-03-01T17:29:34.859Z,3.30
2023-03-01T17:32:09.024Z,3.20
2023-03-01T17:34:42.743Z,3.10
2023-03-01T17:37:15.918Z,3.04
2023-03-01T17:39:48.930Z,3.00
2023-03-01T17:42:22.052Z,2.90
2023-03-01T17:44:55.354Z,2.80
2023-03-01T17:47:28.654Z,2.70
2023-03-01T17:50:01.811Z,2.60
2023-03-01T17:52:34.898Z,2.60
2023-03-01T17:55:08.964Z,2.50
2023-03-01T17:57:43.211Z,2.40
2023-03-01T18:00:20.594Z,2.38
2023-03-01T18:02:55.241Z,2.30
2023-03-01T18:05:28.989Z,2.30
2023-03-01T18:08:02.298Z,2.24
2023-03-01T18:10:36.652Z,2.20
2023-03-01T18:13:11.170Z,2.20
2023-03-01T18:15:44.294Z,2.20
2023-03-01T18:18:17.438Z,2.10
2023-03-01T18:20:58.784Z,2.00
2023-03-01T18:23:33.468Z,1.90
2023-03-01T18:26:08.944Z,1.80
2023-03-01T18:28:42.415Z,1.80
2023-03-01T18:31:18.640Z,1.70
2023-03-01T18:33:53.609Z,1.60
2023-03-01T18:36:30.834Z,1.50
2023-03-01T18:39:06.062Z,1.50
2023-03-01T18:41:39.595Z,1.40
2023-03-01T18:44:12.916Z,1.30
2023-03-01T18:46:47.538Z,1.22
2023-03-01T18:49:20.748Z,1.16
2023-03-01T18:51:54.070Z,1.10
2023-03-01T18:54:27.273Z,1.00
2023-03-01T18:57:00.372Z,1.00
2023-03-01T18:59:34.131Z,0.90
2023-03-01T19:02:07.347Z,0.80
2023-03-01T19:04:40.848Z,0.80
2023-03-01T19:07:14.430Z,0.70
2023-03-01T19:09:47.557Z,0.60
2023-03-01T19:12:20.726Z,0.60
2023-03-01T19:14:54.061Z,0.50
2023-03-01T19:17:31.336Z,0.50
2023-03-01T19:20:05.082Z,0.40
2023-03-01T19:22:38.142Z,0.40
2023-03-01T19:25:13.058Z,0.32
2023-03-01T19:27:46.392Z,0.30
2023-03-01T19:30:20.754Z,0.30
2023-03-01T19:32:53.821Z,0.30
2023-03-01T19:35:26.907Z,0.24
2023-03-01T19:38:00.045Z,0.20
2023-03-01T19:40:33.645Z,0.20
2023-03-01T19:43:07.044Z,0.20
2023-03-01T19:45:40.052Z,0.10
2023-03-01T19:48:13.430Z,0.10
2023-03-01T19:50:47.522Z,0.10
2023-03-01T19:53:20.824Z,0.08
2023-03-01T19:55:58.292Z,0.00
2023-03-01T19:58:33.007Z,0.00
2023-03-01T20:01:06.465Z,0.00
2023-03-01T20:03:40.401Z,-0.06
2023-03-01T20:06:17.270Z,-0.10
2023-03-01T20:08:50.505Z,-0.10
2023-03-01T20:11:24.402Z,-0.10
2023-03-01T20:13:57.986Z,-0.10
2023-03-01T20:16:31.421Z,-0.18
2023-03-01T20:19:06.052Z,-0.20
2023-03-01T20:21:39.204Z,-0.20
2023-03-01T20:24:13.840Z,-0.30
2023-03-01T20:26:46.960Z,-0.34
2023-03-01T20:29:20.134Z,-0.40
2023-03-01T20:31:53.301Z,-0.50
2023-03-01T20:34:26.614Z,-0.52
2023-03-01T20:36:59.730Z,-0.60
2023-03-01T20:39:32.855Z,-0.70
2023-03-01T20:42:06.020Z,-0.70
2023-03-01T20:44:44.580Z,-0.80
2023-03-01T20:47:20.540Z,-0.80
2023-03-01T20:49:55.688Z,-0.90
2023-03-01T20:52:34.212Z,-1.00
2023-03-01T20:55:11.902Z,-1.00
2023-03-01T20:57:45.211Z,-1.10
2023-03-01T21:00:20.060Z,-1.10
2023-03-01T21:02:53.186Z,-1.20
2023-03-01T21:05:26.290Z,-1.20
2023-03-01T21:08:02.603Z,-1.20
2023-03-01T21:10:35.741Z,-1.30
2023-03-01T21:13:10.648Z,-1.30
2023-03-01T21:15:44.120Z,-1.38
2023-03-01T21:18:17.502Z,-1.40
2023-03-01T21:20:50.642Z,-1.40
2023-03-01T21:23:24.133Z,-1.40
2023-03-01T21:26:07.542Z,-1.32
2023-03-01T21:28:41.603Z,-1.30
2023-03-01T21:31:18.535Z,-1.30
2023-03-01T21:33:53.835Z,-1.30
2023-03-01T21:36:29.966Z,-1.30
2023-03-01T21:39:04.116Z,-1.30
2023-03-01T21:41:39.780Z,-1.30
2023-03-01T21:44:12.828Z,-1.30
2023-03-01T21:46:45.880Z,-1.30
2023-03-01T21:49:19.837Z,-1.30
2023-03-01T21:51:53.253Z,-1.30
2023-03-01T21:54:26.324Z,-1.30
2023-03-01T21:56:59.419Z,-1.38
2023-03-01T21:59:32.486Z,-1.40
2023-03-01T22:02:05.560Z,-1.40
2023-03-01T22:04:38.628Z,-1.50
2023-03-01T22:07:11.821Z,-1.50
2023-03-01T22:09:46.727Z,-1.50
2023-03-01T22:12:19.665Z,-1.50
2023-03-01T22:14:52.695Z,-1.50
2023-03-01T22:17:25.829Z,-1.50
2023-03-01T22:19:59.076Z,-1.52
2023-03-01T22:22:33.714Z,-1.50
2023-03-01T22:25:07.960Z,-1.50
2023-03-01T22:27:41.225Z,-1.50
2023-03-01T22:30:17.585Z,-1.50
2023-03-01T22:32:50.941Z,-1.50
2023-03-01T22:35:24.396Z,-1.50
2023-03-01T22:37:57.528Z,-1.54
2023-03-01T22:40:30.728Z,-1.60
2023-03-01T22:43:04.056Z,-1.60
2023-03-01T22:45:37.298Z,-1.60
2023-03-01T22:48:13.454Z,-1.60
2023-03-01T22:50:49.613Z,-1.64
2023-03-01T22:53:23.556Z,-1.70
2023-03-01T22:55:56.618Z,-1.70
2023-03-01T22:58:29.634Z,-1.80
2023-03-01T23:01:02.711Z,-1.86
2023-03-01T23:03:35.751Z,-1.90
2023-03-01T23:06:09.626Z,-1.98
2023-03-01T23:08:43.038Z,-2.00
2023-03-01T23:11:19.048Z,-2.04
2023-03-01T23:13:52.521Z,-2.10
2023-03-01T23:16:26.851Z,-2.10
2023-03-01T23:19:00.701Z,-2.20
2023-03-01T23:21:34.533Z,-2.20
2023-03-01T23:24:08.571Z,-2.20
2023-03-01T23:26:42.050Z,-2.20
2023-03-01T23:29:15.448Z,-2.20
2023-03-01T23:33:49.535Z,-2.20
2023-03-01T23:36:25.398Z,-2.20
2023-03-01T23:39:02.553Z,-2.20
2023-03-01T23:41:37.216Z,-2.10
2023-03-01T23:44:15.706Z,-2.10
2023-03-01T23:46:50.104Z,-2.10
2023-03-01T23:49:25.108Z,-2.10
2023-03-01T23:51:58.133Z,-2.20
2023-03-01T23:54:32.729Z,-2.20
2023-03-01T23:57:06.029Z,-2.30
2023-03-01T23:59:41.114Z,-2.30
